sensor_id;sensor_type;location;lat;lon;timestamp;temperature;humidity
17331;DHT22;8783;52.448;4.638;2024-01-27T00:01:15;6.50;99.90
17331;DHT22;8783;52.448;4.638;2024-01-27T00:03:41;6.50;99.90
17331;DHT22;8783;52.448;4.638;2024-01-27T00:06:06;6.50;99.90
17331;DHT22;8783;52.448;4.638;2024-01-27T00:08:32;6.50;99.90
17331;DHT22;8783;52.448;4.638;2024-01-27T00:10:58;6.50;99.90
17331;DHT22;8783;52.448;4.638;2024-01-27T00:13:23;6.50;99.90
17331;DHT22;8783;52.448;4.638;2024-01-27T00:15:49;6.50;99.90
17331;DHT22;8783;52.448;4.638;2024-01-27T00:18:18;6.50;99.90
17331;DHT22;8783;52.448;4.638;2024-01-27T00:20:43;6.50;99.90
17331;DHT22;8783;52.448;4.638;2024-01-27T00:23:09;6.50;99.90
17331;DHT22;8783;52.448;4.638;2024-01-27T00:25:34;6.50;99.90
17331;DHT22;8783;52.448;4.638;2024-01-27T00:28:00;6.50;99.90
17331;DHT22;8783;52.448;4.638;2024-01-27T00:30:26;6.50;99.90
17331;DHT22;8783;52.448;4.638;2024-01-27T00:32:51;6.40;99.90
17331;DHT22;8783;52.448;4.638;2024-01-27T00:35:17;6.40;99.90
17331;DHT22;8783;52.448;4.638;2024-01-27T00:37:43;6.40;99.90
17331;DHT22;8783;52.448;4.638;2024-01-27T00:40:10;6.50;99.90
17331;DHT22;8783;52.448;4.638;2024-01-27T00:42:36;6.40;99.90
17331;DHT22;8783;52.448;4.638;2024-01-27T00:45:03;6.40;99.90
17331;DHT22;8783;52.448;4.638;2024-01-27T00:47:29;6.40;99.90
17331;DHT22;8783;52.448;4.638;2024-01-27T00:49:54;6.40;99.90
17331;DHT22;8783;52.448;4.638;2024-01-27T00:52:20;6.40;99.90
17331;DHT22;8783;52.448;4.638;2024-01-27T00:54:45;6.40;99.90
17331;DHT22;8783;52.448;4.638;2024-01-27T00:57:11;6.40;99.90
17331;DHT22;8783;52.448;4.638;2024-01-27T00:59:37;6.40;99.90
17331;DHT22;8783;52.448;4.638;2024-01-27T01:02:03;6.40;99.90
17331;DHT22;8783;52.448;4.638;2024-01-27T01:04:28;6.30;99.90
17331;DHT22;8783;52.448;4.638;2024-01-27T01:06:54;6.40;99.90
17331;DHT22;8783;52.448;4.638;2024-01-27T01:09:20;6.30;99.90
17331;DHT22;8783;52.448;4.638;2024-01-27T01:11:45;6.30;99.90
17331;DHT22;8783;52.448;4.638;2024-01-27T01:14:11;6.30;99.90
17331;DHT22;8783;52.448;4.638;2024-01-27T01:16:36;6.30;99.90
17331;DHT22;8783;52.448;4.638;2024-01-27T01:19:02;6.30;99.90
17331;DHT22;8783;52.448;4.638;2024-01-27T01:21:28;6.30;99.90
17331;DHT22;8783;52.448;4.638;2024-01-27T01:23:54;6.30;99.90
17331;DHT22;8783;52.448;4.638;2024-01-27T01:26:19;6.30;99.90
17331;DHT22;8783;52.448;4.638;2024-01-27T01:28:45;6.30;99.90
17331;DHT22;8783;52.448;4.638;2024-01-27T01:31:10;6.30;99.90
17331;DHT22;8783;52.448;4.638;2024-01-27T01:33:39;6.30;99.90
17331;DHT22;8783;52.448;4.638;2024-01-27T01:36:05;6.30;99.90
17331;DHT22;8783;52.448;4.638;2024-01-27T01:38:30;6.30;99.90
17331;DHT22;8783;52.448;4.638;2024-01-27T01:40:56;6.30;99.90
17331;DHT22;8783;52.448;4.638;2024-01-27T01:43:22;6.20;99.90
17331;DHT22;8783;52.448;4.638;2024-01-27T01:45:47;6.20;99.90
17331;DHT22;8783;52.448;4.638;2024-01-27T01:48:15;6.20;99.90
17331;DHT22;8783;52.448;4.638;2024-01-27T01:50:41;6.20;99.90
17331;DHT22;8783;52.448;4.638;2024-01-27T01:53:07;6.20;99.90
17331;DHT22;8783;52.448;4.638;2024-01-27T01:55:34;6.20;99.90
17331;DHT22;8783;52.448;4.638;2024-01-27T01:57:59;6.20;99.90
17331;DHT22;8783;52.448;4.638;2024-01-27T02:00:25;6.20;99.90
17331;DHT22;8783;52.448;4.638;2024-01-27T02:02:51;6.20;99.90
17331;DHT22;8783;52.448;4.638;2024-01-27T02:05:19;6.10;99.90
17331;DHT22;8783;52.448;4.638;2024-01-27T02:07:45;6.10;99.90
17331;DHT22;8783;52.448;4.638;2024-01-27T02:10:15;6.10;99.90
17331;DHT22;8783;52.448;4.638;2024-01-27T02:12:42;6.10;99.90
17331;DHT22;8783;52.448;4.638;2024-01-27T02:15:11;6.10;99.90
17331;DHT22;8783;52.448;4.638;2024-01-27T02:17:38;6.10;99.90
17331;DHT22;8783;52.448;4.638;2024-01-27T02:20:08;6.10;99.90
17331;DHT22;8783;52.448;4.638;2024-01-27T02:22:36;6.10;99.90
17331;DHT22;8783;52.448;4.638;2024-01-27T02:25:03;6.10;99.90
17331;DHT22;8783;52.448;4.638;2024-01-27T02:27:32;6.00;99.90
17331;DHT22;8783;52.448;4.638;2024-01-27T02:29:57;6.00;99.90
17331;DHT22;8783;52.448;4.638;2024-01-27T02:32:23;6.00;99.90
17331;DHT22;8783;52.448;4.638;2024-01-27T02:34:48;6.00;99.90
17331;DHT22;8783;52.448;4.638;2024-01-27T02:37:14;6.00;99.90
17331;DHT22;8783;52.448;4.638;2024-01-27T02:39:40;6.00;99.90
17331;DHT22;8783;52.448;4.638;2024-01-27T02:42:06;6.00;99.90
17331;DHT22;8783;52.448;4.638;2024-01-27T02:44:32;6.00;99.90
17331;DHT22;8783;52.448;4.638;2024-01-27T02:46:57;5.90;99.90
17331;DHT22;8783;52.448;4.638;2024-01-27T02:49:23;5.90;99.90
17331;DHT22;8783;52.448;4.638;2024-01-27T02:51:49;5.90;99.90
17331;DHT22;8783;52.448;4.638;2024-01-27T02:54:14;5.90;99.90
17331;DHT22;8783;52.448;4.638;2024-01-27T02:56:40;5.90;99.90
17331;DHT22;8783;52.448;4.638;2024-01-27T02:59:06;5.90;99.90
17331;DHT22;8783;52.448;4.638;2024-01-27T03:01:32;5.90;99.90
17331;DHT22;8783;52.448;4.638;2024-01-27T03:03:57;5.90;99.90
17331;DHT22;8783;52.448;4.638;2024-01-27T03:06:23;5.80;99.90
17331;DHT22;8783;52.448;4.638;2024-01-27T03:08:49;5.80;99.90
17331;DHT22;8783;52.448;4.638;2024-01-27T03:11:14;5.80;99.90
17331;DHT22;8783;52.448;4.638;2024-01-27T03:13:40;5.80;99.90
17331;DHT22;8783;52.448;4.638;2024-01-27T03:16:10;5.80;99.90
17331;DHT22;8783;52.448;4.638;2024-01-27T03:18:36;5.80;99.90
17331;DHT22;8783;52.448;4.638;2024-01-27T03:21:03;5.70;99.90
17331;DHT22;8783;52.448;4.638;2024-01-27T03:23:28;5.80;99.90
17331;DHT22;8783;52.448;4.638;2024-01-27T03:25:54;5.80;99.90
17331;DHT22;8783;52.448;4.638;2024-01-27T03:28:20;5.80;99.90
17331;DHT22;8783;52.448;4.638;2024-01-27T03:30:46;5.70;99.90
17331;DHT22;8783;52.448;4.638;2024-01-27T03:33:12;5.70;99.90
17331;DHT22;8783;52.448;4.638;2024-01-27T03:35:39;5.70;99.90
17331;DHT22;8783;52.448;4.638;2024-01-27T03:38:05;5.70;99.90
17331;DHT22;8783;52.448;4.638;2024-01-27T03:40:31;5.70;99.90
17331;DHT22;8783;52.448;4.638;2024-01-27T03:42:57;5.70;99.90
17331;DHT22;8783;52.448;4.638;2024-01-27T03:45:22;5.70;99.90
17331;DHT22;8783;52.448;4.638;2024-01-27T03:47:48;5.60;99.90
17331;DHT22;8783;52.448;4.638;2024-01-27T03:50:14;5.60;99.90
17331;DHT22;8783;52.448;4.638;2024-01-27T03:52:39;5.60;99.90
17331;DHT22;8783;52.448;4.638;2024-01-27T03:55:06;5.60;99.90
17331;DHT22;8783;52.448;4.638;2024-01-27T03:57:32;5.60;99.90
17331;DHT22;8783;52.448;4.638;2024-01-27T03:59:58;5.60;99.90
17331;DHT22;8783;52.448;4.638;2024-01-27T04:02:23;5.50;99.90
17331;DHT22;8783;52.448;4.638;2024-01-27T04:04:52;5.50;99.90
17331;DHT22;8783;52.448;4.638;2024-01-27T04:07:18;5.50;99.90
17331;DHT22;8783;52.448;4.638;2024-01-27T04:09:43;5.50;99.90
17331;DHT22;8783;52.448;4.638;2024-01-27T04:12:09;5.50;99.90
17331;DHT22;8783;52.448;4.638;2024-01-27T04:14:34;5.50;99.90
17331;DHT22;8783;52.448;4.638;2024-01-27T04:17:00;5.50;99.90
17331;DHT22;8783;52.448;4.638;2024-01-27T04:19:25;5.50;99.90
17331;DHT22;8783;52.448;4.638;2024-01-27T04:21:51;5.50;99.90
17331;DHT22;8783;52.448;4.638;2024-01-27T04:24:17;5.50;99.90
17331;DHT22;8783;52.448;4.638;2024-01-27T04:26:43;5.50;99.90
17331;DHT22;8783;52.448;4.638;2024-01-27T04:29:08;5.50;99.90
17331;DHT22;8783;52.448;4.638;2024-01-27T04:31:39;5.50;99.90
17331;DHT22;8783;52.448;4.638;2024-01-27T04:34:05;5.40;99.90
17331;DHT22;8783;52.448;4.638;2024-01-27T04:36:30;5.50;99.90
17331;DHT22;8783;52.448;4.638;2024-01-27T04:38:56;5.50;99.90
17331;DHT22;8783;52.448;4.638;2024-01-27T04:41:22;5.40;99.90
17331;DHT22;8783;52.448;4.638;2024-01-27T04:43:47;5.50;99.90
17331;DHT22;8783;52.448;4.638;2024-01-27T04:46:13;5.50;99.90
17331;DHT22;8783;52.448;4.638;2024-01-27T04:48:39;5.50;99.90
17331;DHT22;8783;52.448;4.638;2024-01-27T04:51:04;5.40;99.90
17331;DHT22;8783;52.448;4.638;2024-01-27T04:53:30;5.40;99.90
17331;DHT22;8783;52.448;4.638;2024-01-27T04:55:55;5.40;99.90
17331;DHT22;8783;52.448;4.638;2024-01-27T04:58:21;5.50;99.90
17331;DHT22;8783;52.448;4.638;2024-01-27T05:00:47;5.50;99.90
17331;DHT22;8783;52.448;4.638;2024-01-27T05:03:12;5.40;99.90
17331;DHT22;8783;52.448;4.638;2024-01-27T05:05:42;5.50;99.90
17331;DHT22;8783;52.448;4.638;2024-01-27T05:08:08;5.40;99.90
17331;DHT22;8783;52.448;4.638;2024-01-27T05:10:35;5.40;99.90
17331;DHT22;8783;52.448;4.638;2024-01-27T05:13:01;5.50;99.90
17331;DHT22;8783;52.448;4.638;2024-01-27T05:15:26;5.40;99.90
17331;DHT22;8783;52.448;4.638;2024-01-27T05:17:52;5.40;99.90
17331;DHT22;8783;52.448;4.638;2024-01-27T05:20:18;5.40;99.90
17331;DHT22;8783;52.448;4.638;2024-01-27T05:22:44;5.50;99.90
17331;DHT22;8783;52.448;4.638;2024-01-27T05:25:11;5.40;99.90
17331;DHT22;8783;52.448;4.638;2024-01-27T05:27:40;5.40;99.90
17331;DHT22;8783;52.448;4.638;2024-01-27T05:30:06;5.40;99.90
17331;DHT22;8783;52.448;4.638;2024-01-27T05:32:32;5.40;99.90
17331;DHT22;8783;52.448;4.638;2024-01-27T05:34:57;5.40;99.90
17331;DHT22;8783;52.448;4.638;2024-01-27T05:37:23;5.40;99.90
17331;DHT22;8783;52.448;4.638;2024-01-27T05:39:49;5.40;99.90
17331;DHT22;8783;52.448;4.638;2024-01-27T05:42:14;5.40;99.90
17331;DHT22;8783;52.448;4.638;2024-01-27T05:44:40;5.40;99.90
17331;DHT22;8783;52.448;4.638;2024-01-27T05:47:06;5.40;99.90
17331;DHT22;8783;52.448;4.638;2024-01-27T05:49:32;5.40;99.90
17331;DHT22;8783;52.448;4.638;2024-01-27T05:51:58;5.40;99.90
17331;DHT22;8783;52.448;4.638;2024-01-27T05:54:24;5.40;99.90
17331;DHT22;8783;52.448;4.638;2024-01-27T05:56:50;5.40;99.90
17331;DHT22;8783;52.448;4.638;2024-01-27T05:59:16;5.40;99.90
17331;DHT22;8783;52.448;4.638;2024-01-27T06:01:41;5.40;99.90
17331;DHT22;8783;52.448;4.638;2024-01-27T06:04:09;5.40;99.90
17331;DHT22;8783;52.448;4.638;2024-01-27T06:06:37;5.40;99.90
17331;DHT22;8783;52.448;4.638;2024-01-27T06:09:03;5.40;99.90
17331;DHT22;8783;52.448;4.638;2024-01-27T06:11:29;5.40;99.90
17331;DHT22;8783;52.448;4.638;2024-01-27T06:13:55;5.40;99.90
17331;DHT22;8783;52.448;4.638;2024-01-27T06:16:21;5.40;99.90
17331;DHT22;8783;52.448;4.638;2024-01-27T06:18:46;5.40;99.90
17331;DHT22;8783;52.448;4.638;2024-01-27T06:21:12;5.40;99.90
17331;DHT22;8783;52.448;4.638;2024-01-27T06:23:38;5.40;99.90
17331;DHT22;8783;52.448;4.638;2024-01-27T06:26:07;5.40;99.90
17331;DHT22;8783;52.448;4.638;2024-01-27T06:28:33;5.40;99.90
17331;DHT22;8783;52.448;4.638;2024-01-27T06:31:00;5.40;99.90
17331;DHT22;8783;52.448;4.638;2024-01-27T06:33:26;5.40;99.90
17331;DHT22;8783;52.448;4.638;2024-01-27T06:35:51;5.40;99.90
17331;DHT22;8783;52.448;4.638;2024-01-27T06:38:17;5.40;99.90
17331;DHT22;8783;52.448;4.638;2024-01-27T06:40:43;5.30;99.90
17331;DHT22;8783;52.448;4.638;2024-01-27T06:43:11;5.30;99.90
17331;DHT22;8783;52.448;4.638;2024-01-27T06:45:37;5.40;99.90
17331;DHT22;8783;52.448;4.638;2024-01-27T06:48:03;5.30;99.90
17331;DHT22;8783;52.448;4.638;2024-01-27T06:50:29;5.30;99.90
17331;DHT22;8783;52.448;4.638;2024-01-27T06:52:55;5.30;99.90
17331;DHT22;8783;52.448;4.638;2024-01-27T06:55:20;5.40;99.90
17331;DHT22;8783;52.448;4.638;2024-01-27T06:57:46;5.40;99.90
17331;DHT22;8783;52.448;4.638;2024-01-27T07:00:12;5.30;99.90
17331;DHT22;8783;52.448;4.638;2024-01-27T07:02:40;5.30;99.90
17331;DHT22;8783;52.448;4.638;2024-01-27T07:05:08;5.30;99.90
17331;DHT22;8783;52.448;4.638;2024-01-27T07:07:34;5.30;99.90
17331;DHT22;8783;52.448;4.638;2024-01-27T07:09:59;5.40;99.90
17331;DHT22;8783;52.448;4.638;2024-01-27T07:12:25;5.30;99.90
17331;DHT22;8783;52.448;4.638;2024-01-27T07:14:51;5.40;99.90
17331;DHT22;8783;52.448;4.638;2024-01-27T07:17:17;5.30;99.90
17331;DHT22;8783;52.448;4.638;2024-01-27T07:19:43;5.30;99.90
17331;DHT22;8783;52.448;4.638;2024-01-27T07:22:09;5.30;99.90
17331;DHT22;8783;52.448;4.638;2024-01-27T07:24:34;5.30;99.90
17331;DHT22;8783;52.448;4.638;2024-01-27T07:27:00;5.30;99.90
17331;DHT22;8783;52.448;4.638;2024-01-27T07:29:26;5.30;99.90
17331;DHT22;8783;52.448;4.638;2024-01-27T07:31:52;5.30;99.90
17331;DHT22;8783;52.448;4.638;2024-01-27T07:34:18;5.30;99.90
17331;DHT22;8783;52.448;4.638;2024-01-27T07:36:44;5.30;99.90
17331;DHT22;8783;52.448;4.638;2024-01-27T07:39:09;5.40;99.90
17331;DHT22;8783;52.448;4.638;2024-01-27T07:41:35;5.30;99.90
17331;DHT22;8783;52.448;4.638;2024-01-27T07:44:08;5.30;99.90
17331;DHT22;8783;52.448;4.638;2024-01-27T07:46:35;5.30;99.90
17331;DHT22;8783;52.448;4.638;2024-01-27T07:49:01;5.30;99.90
17331;DHT22;8783;52.448;4.638;2024-01-27T07:51:28;5.30;99.90
17331;DHT22;8783;52.448;4.638;2024-01-27T07:53:53;5.30;99.90
17331;DHT22;8783;52.448;4.638;2024-01-27T07:56:19;5.30;99.90
17331;DHT22;8783;52.448;4.638;2024-01-27T07:58:44;5.40;99.90
17331;DHT22;8783;52.448;4.638;2024-01-27T08:01:13;5.40;99.90
17331;DHT22;8783;52.448;4.638;2024-01-27T08:03:39;5.40;99.90
17331;DHT22;8783;52.448;4.638;2024-01-27T08:06:05;5.40;99.90
17331;DHT22;8783;52.448;4.638;2024-01-27T08:08:34;5.40;99.90
17331;DHT22;8783;52.448;4.638;2024-01-27T08:10:59;5.40;99.90
17331;DHT22;8783;52.448;4.638;2024-01-27T08:13:25;5.40;99.90
17331;DHT22;8783;52.448;4.638;2024-01-27T08:15:51;5.40;99.90
17331;DHT22;8783;52.448;4.638;2024-01-27T08:18:16;5.50;99.90
17331;DHT22;8783;52.448;4.638;2024-01-27T08:20:42;5.50;99.90
17331;DHT22;8783;52.448;4.638;2024-01-27T08:23:08;5.50;99.90
17331;DHT22;8783;52.448;4.638;2024-01-27T08:25:34;5.50;99.90
17331;DHT22;8783;52.448;4.638;2024-01-27T08:28:00;5.50;99.90
17331;DHT22;8783;52.448;4.638;2024-01-27T08:30:25;5.50;99.90
17331;DHT22;8783;52.448;4.638;2024-01-27T08:32:51;5.60;99.90
17331;DHT22;8783;52.448;4.638;2024-01-27T08:35:17;5.60;99.90
17331;DHT22;8783;52.448;4.638;2024-01-27T08:37:42;5.60;99.90
17331;DHT22;8783;52.448;4.638;2024-01-27T08:40:08;5.60;99.90
17331;DHT22;8783;52.448;4.638;2024-01-27T08:42:34;5.60;99.90
17331;DHT22;8783;52.448;4.638;2024-01-27T08:45:00;5.60;99.90
17331;DHT22;8783;52.448;4.638;2024-01-27T08:47:25;5.70;99.90
17331;DHT22;8783;52.448;4.638;2024-01-27T08:49:51;5.70;99.90
17331;DHT22;8783;52.448;4.638;2024-01-27T08:52:16;5.70;99.90
17331;DHT22;8783;52.448;4.638;2024-01-27T08:54:42;5.70;99.90
17331;DHT22;8783;52.448;4.638;2024-01-27T08:57:07;5.70;99.90
17331;DHT22;8783;52.448;4.638;2024-01-27T08:59:33;5.70;99.90
17331;DHT22;8783;52.448;4.638;2024-01-27T09:01:59;5.70;99.90
17331;DHT22;8783;52.448;4.638;2024-01-27T09:04:25;5.80;99.90
17331;DHT22;8783;52.448;4.638;2024-01-27T09:06:50;5.80;99.90
17331;DHT22;8783;52.448;4.638;2024-01-27T09:09:16;5.80;99.90
17331;DHT22;8783;52.448;4.638;2024-01-27T09:11:42;5.80;99.90
17331;DHT22;8783;52.448;4.638;2024-01-27T09:14:08;5.80;99.90
17331;DHT22;8783;52.448;4.638;2024-01-27T09:16:33;5.80;99.90
17331;DHT22;8783;52.448;4.638;2024-01-27T09:18:59;5.80;99.90
17331;DHT22;8783;52.448;4.638;2024-01-27T09:21:26;5.90;99.90
17331;DHT22;8783;52.448;4.638;2024-01-27T09:23:57;5.90;99.90
17331;DHT22;8783;52.448;4.638;2024-01-27T09:26:22;5.90;99.90
17331;DHT22;8783;52.448;4.638;2024-01-27T09:28:48;5.90;99.90
17331;DHT22;8783;52.448;4.638;2024-01-27T09:31:23;5.90;99.90
17331;DHT22;8783;52.448;4.638;2024-01-27T09:33:52;5.90;99.90
17331;DHT22;8783;52.448;4.638;2024-01-27T09:36:19;5.90;99.90
17331;DHT22;8783;52.448;4.638;2024-01-27T09:38:45;5.90;99.90
17331;DHT22;8783;52.448;4.638;2024-01-27T09:41:13;5.90;99.90
17331;DHT22;8783;52.448;4.638;2024-01-27T09:43:42;6.00;99.90
17331;DHT22;8783;52.448;4.638;2024-01-27T09:46:08;6.00;99.90
17331;DHT22;8783;52.448;4.638;2024-01-27T09:48:35;6.00;99.90
17331;DHT22;8783;52.448;4.638;2024-01-27T09:51:01;6.00;99.90
17331;DHT22;8783;52.448;4.638;2024-01-27T09:53:28;6.00;99.90
17331;DHT22;8783;52.448;4.638;2024-01-27T09:55:56;6.00;99.90
17331;DHT22;8783;52.448;4.638;2024-01-27T09:58:25;6.10;99.90
17331;DHT22;8783;52.448;4.638;2024-01-27T10:00:57;6.10;99.90
17331;DHT22;8783;52.448;4.638;2024-01-27T10:03:27;6.10;99.90
17331;DHT22;8783;52.448;4.638;2024-01-27T10:05:55;6.10;99.90
17331;DHT22;8783;52.448;4.638;2024-01-27T10:08:22;6.10;99.90
17331;DHT22;8783;52.448;4.638;2024-01-27T10:10:50;6.10;99.90
17331;DHT22;8783;52.448;4.638;2024-01-27T10:13:19;6.20;99.90
17331;DHT22;8783;52.448;4.638;2024-01-27T10:16:00;6.20;99.90
17331;DHT22;8783;52.448;4.638;2024-01-27T10:18:26;6.20;99.90
17331;DHT22;8783;52.448;4.638;2024-01-27T10:20:51;6.20;99.90
17331;DHT22;8783;52.448;4.638;2024-01-27T10:23:17;6.20;99.90
17331;DHT22;8783;52.448;4.638;2024-01-27T10:25:43;6.30;99.90
17331;DHT22;8783;52.448;4.638;2024-01-27T10:28:09;6.30;99.90
17331;DHT22;8783;52.448;4.638;2024-01-27T10:30:35;6.40;99.90
17331;DHT22;8783;52.448;4.638;2024-01-27T10:33:02;6.50;99.90
17331;DHT22;8783;52.448;4.638;2024-01-27T10:35:28;6.50;99.90
17331;DHT22;8783;52.448;4.638;2024-01-27T10:37:55;6.50;99.90
17331;DHT22;8783;52.448;4.638;2024-01-27T10:40:21;6.60;99.90
17331;DHT22;8783;52.448;4.638;2024-01-27T10:43:02;6.70;99.90
17331;DHT22;8783;52.448;4.638;2024-01-27T10:45:39;6.70;99.90
17331;DHT22;8783;52.448;4.638;2024-01-27T10:48:06;6.70;99.90
17331;DHT22;8783;52.448;4.638;2024-01-27T10:50:37;6.70;99.90
17331;DHT22;8783;52.448;4.638;2024-01-27T10:53:04;6.70;99.90
17331;DHT22;8783;52.448;4.638;2024-01-27T10:55:33;6.70;99.90
17331;DHT22;8783;52.448;4.638;2024-01-27T10:58:02;6.70;99.90
17331;DHT22;8783;52.448;4.638;2024-01-27T11:00:29;6.70;99.90
17331;DHT22;8783;52.448;4.638;2024-01-27T11:03:01;6.70;99.90
17331;DHT22;8783;52.448;4.638;2024-01-27T11:05:28;6.70;99.90
17331;DHT22;8783;52.448;4.638;2024-01-27T11:07:59;6.70;99.90
17331;DHT22;8783;52.448;4.638;2024-01-27T11:10:25;6.70;99.90
17331;DHT22;8783;52.448;4.638;2024-01-27T11:12:55;6.80;99.90
17331;DHT22;8783;52.448;4.638;2024-01-27T11:15:21;6.80;99.90
17331;DHT22;8783;52.448;4.638;2024-01-27T11:17:47;6.80;99.90
17331;DHT22;8783;52.448;4.638;2024-01-27T11:20:13;6.80;99.90
17331;DHT22;8783;52.448;4.638;2024-01-27T11:22:41;6.80;99.90
17331;DHT22;8783;52.448;4.638;2024-01-27T11:27:41;6.90;99.90
17331;DHT22;8783;52.448;4.638;2024-01-27T11:30:28;6.90;99.90
17331;DHT22;8783;52.448;4.638;2024-01-27T11:32:57;6.90;99.90
17331;DHT22;8783;52.448;4.638;2024-01-27T11:35:26;6.90;99.90
17331;DHT22;8783;52.448;4.638;2024-01-27T11:37:52;6.90;99.90
17331;DHT22;8783;52.448;4.638;2024-01-27T11:40:18;6.90;99.90
17331;DHT22;8783;52.448;4.638;2024-01-27T11:42:53;6.90;99.90
17331;DHT22;8783;52.448;4.638;2024-01-27T11:45:19;7.00;99.90
17331;DHT22;8783;52.448;4.638;2024-01-27T11:47:44;7.00;99.90
17331;DHT22;8783;52.448;4.638;2024-01-27T11:50:11;7.00;99.90
17331;DHT22;8783;52.448;4.638;2024-01-27T11:52:37;7.00;99.90
17331;DHT22;8783;52.448;4.638;2024-01-27T11:55:04;7.00;99.90
17331;DHT22;8783;52.448;4.638;2024-01-27T11:57:29;7.10;99.90
17331;DHT22;8783;52.448;4.638;2024-01-27T11:59:56;7.10;99.90
17331;DHT22;8783;52.448;4.638;2024-01-27T12:02:21;7.10;99.90
17331;DHT22;8783;52.448;4.638;2024-01-27T12:04:47;7.10;99.90
17331;DHT22;8783;52.448;4.638;2024-01-27T12:07:14;7.10;99.90
17331;DHT22;8783;52.448;4.638;2024-01-27T12:09:40;7.10;99.90
17331;DHT22;8783;52.448;4.638;2024-01-27T12:12:08;7.10;99.90
17331;DHT22;8783;52.448;4.638;2024-01-27T12:14:44;7.20;99.90
17331;DHT22;8783;52.448;4.638;2024-01-27T12:17:11;7.20;99.90
17331;DHT22;8783;52.448;4.638;2024-01-27T12:19:37;7.20;99.90
17331;DHT22;8783;52.448;4.638;2024-01-27T12:22:04;7.20;99.90
17331;DHT22;8783;52.448;4.638;2024-01-27T12:24:29;7.20;99.90
17331;DHT22;8783;52.448;4.638;2024-01-27T12:26:58;7.30;99.90
17331;DHT22;8783;52.448;4.638;2024-01-27T12:29:24;7.30;99.90
17331;DHT22;8783;52.448;4.638;2024-01-27T12:31:50;7.30;99.90
17331;DHT22;8783;52.448;4.638;2024-01-27T12:34:17;7.30;99.90
17331;DHT22;8783;52.448;4.638;2024-01-27T12:36:43;7.30;99.90
17331;DHT22;8783;52.448;4.638;2024-01-27T12:39:09;7.30;99.90
17331;DHT22;8783;52.448;4.638;2024-01-27T12:41:35;7.30;99.90
17331;DHT22;8783;52.448;4.638;2024-01-27T12:44:01;7.30;99.90
17331;DHT22;8783;52.448;4.638;2024-01-27T12:46:28;7.40;99.90
17331;DHT22;8783;52.448;4.638;2024-01-27T12:48:54;7.40;99.90
17331;DHT22;8783;52.448;4.638;2024-01-27T12:51:20;7.40;99.90
17331;DHT22;8783;52.448;4.638;2024-01-27T12:53:46;7.40;99.90
17331;DHT22;8783;52.448;4.638;2024-01-27T12:56:12;7.40;99.90
17331;DHT22;8783;52.448;4.638;2024-01-27T12:58:39;7.40;99.90
17331;DHT22;8783;52.448;4.638;2024-01-27T13:01:06;7.40;99.90
17331;DHT22;8783;52.448;4.638;2024-01-27T13:03:31;7.40;99.90
17331;DHT22;8783;52.448;4.638;2024-01-27T13:05:57;7.40;99.90
17331;DHT22;8783;52.448;4.638;2024-01-27T13:08:23;7.40;99.90
17331;DHT22;8783;52.448;4.638;2024-01-27T13:10:49;7.40;99.90
17331;DHT22;8783;52.448;4.638;2024-01-27T13:13:15;7.40;99.90
17331;DHT22;8783;52.448;4.638;2024-01-27T13:15:41;7.40;99.90
17331;DHT22;8783;52.448;4.638;2024-01-27T13:18:07;7.40;99.90
17331;DHT22;8783;52.448;4.638;2024-01-27T13:20:33;7.40;99.90
17331;DHT22;8783;52.448;4.638;2024-01-27T13:22:59;7.40;99.90
17331;DHT22;8783;52.448;4.638;2024-01-27T13:25:24;7.40;99.90
17331;DHT22;8783;52.448;4.638;2024-01-27T13:27:50;7.50;99.90
17331;DHT22;8783;52.448;4.638;2024-01-27T13:30:16;7.50;99.90
17331;DHT22;8783;52.448;4.638;2024-01-27T13:32:46;7.50;99.90
17331;DHT22;8783;52.448;4.638;2024-01-27T13:35:11;7.40;99.90
17331;DHT22;8783;52.448;4.638;2024-01-27T13:37:37;7.50;99.90
17331;DHT22;8783;52.448;4.638;2024-01-27T13:40:04;7.40;99.90
17331;DHT22;8783;52.448;4.638;2024-01-27T13:42:30;7.50;99.90
17331;DHT22;8783;52.448;4.638;2024-01-27T13:44:56;7.50;99.90
17331;DHT22;8783;52.448;4.638;2024-01-27T13:47:22;7.50;99.90
17331;DHT22;8783;52.448;4.638;2024-01-27T13:49:48;7.50;99.90
17331;DHT22;8783;52.448;4.638;2024-01-27T13:52:14;7.50;99.90
17331;DHT22;8783;52.448;4.638;2024-01-27T13:54:39;7.50;99.90
17331;DHT22;8783;52.448;4.638;2024-01-27T13:57:06;7.50;99.90
17331;DHT22;8783;52.448;4.638;2024-01-27T13:59:32;7.50;99.90
17331;DHT22;8783;52.448;4.638;2024-01-27T14:01:58;7.40;99.90
17331;DHT22;8783;52.448;4.638;2024-01-27T14:04:24;7.50;99.90
17331;DHT22;8783;52.448;4.638;2024-01-27T14:06:53;7.40;99.90
17331;DHT22;8783;52.448;4.638;2024-01-27T14:09:20;7.50;99.90
17331;DHT22;8783;52.448;4.638;2024-01-27T14:11:46;7.50;99.90
17331;DHT22;8783;52.448;4.638;2024-01-27T14:14:12;7.50;99.90
17331;DHT22;8783;52.448;4.638;2024-01-27T14:16:38;7.50;99.90
17331;DHT22;8783;52.448;4.638;2024-01-27T14:19:03;7.50;99.90
17331;DHT22;8783;52.448;4.638;2024-01-27T14:21:29;7.50;99.90
17331;DHT22;8783;52.448;4.638;2024-01-27T14:23:55;7.50;99.90
17331;DHT22;8783;52.448;4.638;2024-01-27T14:26:27;7.50;99.90
17331;DHT22;8783;52.448;4.638;2024-01-27T14:28:53;7.50;99.90
17331;DHT22;8783;52.448;4.638;2024-01-27T14:31:19;7.50;99.90
17331;DHT22;8783;52.448;4.638;2024-01-27T14:33:45;7.50;99.90
17331;DHT22;8783;52.448;4.638;2024-01-27T14:36:10;7.50;99.90
17331;DHT22;8783;52.448;4.638;2024-01-27T14:38:37;7.50;99.90
17331;DHT22;8783;52.448;4.638;2024-01-27T14:41:02;7.50;99.90
17331;DHT22;8783;52.448;4.638;2024-01-27T14:43:29;7.50;99.90
17331;DHT22;8783;52.448;4.638;2024-01-27T14:45:54;7.50;99.90
17331;DHT22;8783;52.448;4.638;2024-01-27T14:48:21;7.50;99.90
17331;DHT22;8783;52.448;4.638;2024-01-27T14:50:47;7.50;99.90
17331;DHT22;8783;52.448;4.638;2024-01-27T14:53:22;7.50;99.90
17331;DHT22;8783;52.448;4.638;2024-01-27T14:55:48;7.50;99.90
17331;DHT22;8783;52.448;4.638;2024-01-27T14:58:14;7.60;99.90
17331;DHT22;8783;52.448;4.638;2024-01-27T15:00:39;7.60;99.90
17331;DHT22;8783;52.448;4.638;2024-01-27T15:03:06;7.60;99.90
17331;DHT22;8783;52.448;4.638;2024-01-27T15:05:31;7.60;99.90
17331;DHT22;8783;52.448;4.638;2024-01-27T15:08:02;7.70;99.90
17331;DHT22;8783;52.448;4.638;2024-01-27T15:10:28;7.70;99.90
17331;DHT22;8783;52.448;4.638;2024-01-27T15:12:53;7.70;99.90
17331;DHT22;8783;52.448;4.638;2024-01-27T15:15:19;7.70;99.90
17331;DHT22;8783;52.448;4.638;2024-01-27T15:17:45;7.60;99.90
17331;DHT22;8783;52.448;4.638;2024-01-27T15:20:11;7.60;99.90
17331;DHT22;8783;52.448;4.638;2024-01-27T15:22:37;7.60;99.90
17331;DHT22;8783;52.448;4.638;2024-01-27T15:25:03;7.60;99.90
17331;DHT22;8783;52.448;4.638;2024-01-27T15:27:29;7.60;99.90
17331;DHT22;8783;52.448;4.638;2024-01-27T15:29:55;7.60;99.90
17331;DHT22;8783;52.448;4.638;2024-01-27T15:32:20;7.60;99.90
17331;DHT22;8783;52.448;4.638;2024-01-27T15:34:49;7.60;99.90
17331;DHT22;8783;52.448;4.638;2024-01-27T15:37:15;7.60;99.90
17331;DHT22;8783;52.448;4.638;2024-01-27T15:39:41;7.60;99.90
17331;DHT22;8783;52.448;4.638;2024-01-27T15:42:08;7.60;99.90
17331;DHT22;8783;52.448;4.638;2024-01-27T15:44:34;7.50;99.90
17331;DHT22;8783;52.448;4.638;2024-01-27T15:47:00;7.50;99.90
17331;DHT22;8783;52.448;4.638;2024-01-27T15:49:27;7.50;99.90
17331;DHT22;8783;52.448;4.638;2024-01-27T15:51:52;7.50;99.90
17331;DHT22;8783;52.448;4.638;2024-01-27T15:54:19;7.50;99.90
17331;DHT22;8783;52.448;4.638;2024-01-27T15:56:46;7.50;99.90
17331;DHT22;8783;52.448;4.638;2024-01-27T15:59:13;7.50;99.90